Time;durP1;ratioP1;P1;durP2;ratioP2;P2;SDS_P1;SDS_P2;PMS_P1;PMS_P2;Temp;Humidity;BMP_temperature;BMP_pressure;BME280_temperature;BME280_humidity;BME280_pressure;Samples;Min_cycle;Max_cycle;Signal;HPM_P1;HPM_P2
2023/10/11 00:01:59;;;;;;;62.10;28.53;;;7.30;99.90;;;;;;4408579;28;655944;-68
2023/10/11 00:04:48;;;;;;;52.50;26.17;;;7.30;99.90;;;;;;4427952;28;655598;-68
2023/10/11 00:07:36;;;;;;;72.07;26.40;;;7.30;99.90;;;;;;4394130;28;655504;-68
2023/10/11 00:10:23;;;;;;;54.00;25.17;;;7.40;99.90;;;;;;4394734;28;655397;-68
2023/10/11 00:13:15;;;;;;;47.23;23.73;;;7.50;99.90;;;;;;4418482;28;656451;-68
2023/10/11 00:16:07;;;;;;;54.27;24.00;;;7.60;99.90;;;;;;4384249;28;655307;-68
2023/10/11 00:18:55;;;;;;;59.03;29.70;;;7.60;99.90;;;;;;4392605;28;655458;-68
2023/10/11 00:21:43;;;;;;;80.83;38.50;;;7.60;99.90;;;;;;4401814;28;656894;-68
2023/10/11 00:24:30;;;;;;;140.17;64.23;;;7.70;99.90;;;;;;4412944;28;656289;-68
2023/10/11 00:27:19;;;;;;;112.13;50.22;;;7.70;99.90;;;;;;4397551;28;657301;-68
2023/10/11 00:30:09;;;;;;;111.77;51.37;;;7.80;99.90;;;;;;4414668;28;656562;-68
2023/10/11 00:32:56;;;;;;;125.87;57.17;;;7.80;99.90;;;;;;4389536;28;656540;-68
2023/10/11 00:35:47;;;;;;;131.77;59.63;;;7.90;99.90;;;;;;4396173;28;656447;-68
2023/10/11 00:38:43;;;;;;;81.07;35.67;;;8.00;99.90;;;;;;4387773;28;657708;-68
2023/10/11 00:41:31;;;;;;;91.77;40.40;;;8.00;99.90;;;;;;4367013;28;656319;-68
2023/10/11 00:44:20;;;;;;;110.77;50.60;;;8.00;99.90;;;;;;4397260;28;655284;-68
2023/10/11 00:47:09;;;;;;;130.07;61.17;;;8.20;99.90;;;;;;4411644;28;656293;-69
2023/10/11 00:49:58;;;;;;;178.70;79.60;;;8.20;99.90;;;;;;4405386;28;656169;-69
2023/10/11 00:52:47;;;;;;;107.40;47.43;;;8.20;99.90;;;;;;4387616;28;657183;-69
2023/10/11 00:55:34;;;;;;;78.73;38.13;;;8.30;99.90;;;;;;4395490;28;657959;-69
2023/10/11 00:58:23;;;;;;;242.07;117.60;;;8.40;99.90;;;;;;4415070;28;655438;-69
2023/10/11 01:01:14;;;;;;;209.53;97.47;;;8.50;99.90;;;;;;4387474;28;657850;-69
2023/10/11 01:04:04;;;;;;;214.03;101.20;;;8.50;99.90;;;;;;4391584;28;656738;-70
2023/10/11 01:06:51;;;;;;;129.87;62.70;;;8.60;99.90;;;;;;4396764;28;657745;-69
2023/10/11 01:09:40;;;;;;;110.87;51.73;;;8.60;99.90;;;;;;4409978;28;656295;-69
2023/10/11 01:12:27;;;;;;;124.50;54.73;;;8.70;99.90;;;;;;4406923;28;657210;-70
2023/10/11 01:15:19;;;;;;;106.43;50.23;;;8.70;99.90;;;;;;4432054;28;657706;-69
2023/10/11 01:18:06;;;;;;;100.93;48.83;;;8.70;99.90;;;;;;4404051;28;656952;-69
2023/10/11 01:20:55;;;;;;;82.70;41.87;;;8.80;99.90;;;;;;4406651;28;657323;-69
2023/10/11 01:23:43;;;;;;;108.90;53.90;;;8.80;99.90;;;;;;4412036;28;655825;-69
2023/10/11 01:26:32;;;;;;;77.03;37.77;;;8.70;99.90;;;;;;4423907;28;657449;-69
2023/10/11 01:29:19;;;;;;;81.60;39.57;;;8.80;99.90;;;;;;4404270;28;656176;-70
2023/10/11 01:32:08;;;;;;;77.77;36.87;;;8.80;99.90;;;;;;4410418;28;655816;-69
2023/10/11 01:34:57;;;;;;;67.93;33.33;;;8.90;99.90;;;;;;4429404;28;657145;-69
2023/10/11 01:37:45;;;;;;;69.60;33.37;;;8.90;99.90;;;;;;4405572;28;655892;-69
2023/10/11 01:40:33;;;;;;;69.45;33.90;;;8.90;99.90;;;;;;4404972;28;655492;-70
2023/10/11 01:43:20;;;;;;;68.80;36.60;;;9.00;99.90;;;;;;4429536;28;655967;-69
2023/10/11 01:46:08;;;;;;;67.53;33.70;;;9.10;99.90;;;;;;4408036;28;656239;-69
2023/10/11 01:48:55;;;;;;;77.50;35.77;;;9.10;99.90;;;;;;4430392;28;656747;-69
2023/10/11 01:51:46;;;;;;;63.90;31.23;;;9.10;99.90;;;;;;4407603;28;655600;-69
2023/10/11 01:54:35;;;;;;;64.97;32.90;;;9.10;99.90;;;;;;4409548;28;655581;-69
2023/10/11 01:57:25;;;;;;;60.20;31.50;;;9.20;99.90;;;;;;4419662;28;655765;-69
2023/10/11 02:00:14;;;;;;;93.13;44.20;;;9.20;99.90;;;;;;4422647;28;656464;-70
2023/10/11 02:03:03;;;;;;;66.50;30.83;;;9.30;99.90;;;;;;4427815;28;655694;-69
2023/10/11 02:05:51;;;;;;;66.03;33.37;;;9.40;99.90;;;;;;4403835;28;656671;-69
2023/10/11 02:08:38;;;;;;;60.73;31.43;;;9.40;99.90;;;;;;4407355;28;655658;-69
2023/10/11 02:11:30;;;;;;;58.13;29.85;;;9.40;99.90;;;;;;4412371;28;656420;-69
2023/10/11 02:14:18;;;;;;;70.20;33.17;;;9.50;99.90;;;;;;4420703;28;656466;-70
2023/10/11 02:17:06;;;;;;;78.50;30.07;;;9.50;99.90;;;;;;4428231;28;658071;-70
2023/10/11 02:19:54;;;;;;;68.40;29.53;;;9.50;99.90;;;;;;4409740;28;656699;-70
2023/10/11 02:22:44;;;;;;;69.03;33.37;;;9.60;99.90;;;;;;4419463;28;655987;-69
2023/10/11 02:25:34;;;;;;;66.23;33.87;;;9.60;99.90;;;;;;4405861;28;656393;-70
2023/10/11 02:28:23;;;;;;;65.67;30.40;;;9.60;99.90;;;;;;4401814;28;656290;-70
2023/10/11 02:31:12;;;;;;;70.72;31.02;;;9.70;99.90;;;;;;4400356;28;656065;-70
2023/10/11 02:34:12;;;;;;;63.50;31.27;;;9.70;99.90;;;;;;4405767;28;655443;-70
2023/10/11 02:37:10;;;;;;;62.07;30.97;;;9.80;99.90;;;;;;4400864;28;656214;-70
2023/10/11 02:39:58;;;;;;;65.70;34.10;;;9.90;99.90;;;;;;4385093;28;656129;-70
2023/10/11 02:42:46;;;;;;;59.40;29.13;;;10.00;99.90;;;;;;4426510;28;656292;-70
2023/10/11 02:45:35;;;;;;;55.80;29.13;;;10.00;99.90;;;;;;4401992;28;656354;-69
2023/10/11 02:48:22;;;;;;;56.57;28.70;;;10.00;99.90;;;;;;4417177;28;657163;-70
2023/10/11 02:51:15;;;;;;;56.37;29.20;;;10.10;99.90;;;;;;4427100;28;657681;-70
2023/10/11 02:54:04;;;;;;;51.10;27.73;;;10.10;99.90;;;;;;4385811;28;656969;-70
2023/10/11 02:56:52;;;;;;;54.33;28.67;;;10.00;99.90;;;;;;4425233;28;656241;-70
2023/10/11 02:59:44;;;;;;;52.70;26.63;;;10.00;99.90;;;;;;4402113;28;658358;-70
2023/10/11 03:02:38;;;;;;;52.83;25.87;;;10.10;99.90;;;;;;4401335;28;656771;-70
2023/10/11 03:05:28;;;;;;;52.63;25.83;;;10.00;99.90;;;;;;4401050;28;656576;-70
2023/10/11 03:08:18;;;;;;;46.30;25.07;;;10.10;99.90;;;;;;4397389;28;656598;-70
2023/10/11 03:11:05;;;;;;;47.43;24.63;;;10.10;99.90;;;;;;4402843;28;657368;-70
2023/10/11 03:13:53;;;;;;;46.70;24.73;;;10.20;99.90;;;;;;4404643;28;656496;-70
2023/10/11 03:16:42;;;;;;;46.40;25.70;;;10.20;99.90;;;;;;4424556;28;656430;-70
2023/10/11 03:19:34;;;;;;;49.30;25.50;;;10.30;99.90;;;;;;4405597;28;657665;-70
2023/10/11 03:22:21;;;;;;;44.80;23.10;;;10.30;99.90;;;;;;4400832;28;660455;-70
2023/10/11 03:25:18;;;;;;;39.37;21.77;;;10.30;99.90;;;;;;4407590;28;656164;-70
2023/10/11 03:28:06;;;;;;;38.07;20.40;;;10.30;99.90;;;;;;4399253;28;657733;-70
2023/10/11 03:30:54;;;;;;;38.23;20.87;;;10.40;99.90;;;;;;4406347;28;656640;-70
2023/10/11 03:33:42;;;;;;;44.67;22.27;;;10.40;99.90;;;;;;4424960;28;656296;-70
2023/10/11 03:36:34;;;;;;;38.60;19.53;;;10.40;99.90;;;;;;4398289;28;656810;-70
2023/10/11 03:39:28;;;;;;;32.70;19.00;;;10.40;99.90;;;;;;4401103;28;656498;-70
2023/10/11 03:42:17;;;;;;;37.00;20.40;;;10.50;99.90;;;;;;4401817;28;657689;-70
2023/10/11 03:45:08;;;;;;;32.93;18.77;;;10.50;99.90;;;;;;4403155;28;658378;-70
2023/10/11 03:47:57;;;;;;;40.10;19.60;;;10.50;99.90;;;;;;4402982;28;656791;-70
2023/10/11 03:50:48;;;;;;;33.87;19.83;;;10.60;99.90;;;;;;4404991;28;657338;-70
2023/10/11 03:53:39;;;;;;;34.30;18.57;;;10.60;99.90;;;;;;4400479;28;657122;-70
2023/10/11 03:56:26;;;;;;;32.73;18.13;;;10.60;99.90;;;;;;4400737;28;656512;-70
2023/10/11 03:59:13;;;;;;;38.93;20.60;;;10.60;99.90;;;;;;4408986;28;656961;-70
2023/10/11 04:02:01;;;;;;;34.73;19.30;;;10.60;99.90;;;;;;4424221;28;657517;-70
2023/10/11 04:04:49;;;;;;;34.67;18.73;;;10.60;99.90;;;;;;4403867;28;656840;-70
2023/10/11 04:07:37;;;;;;;36.30;19.47;;;10.70;99.90;;;;;;4425306;28;656617;-70
2023/10/11 04:10:38;;;;;;;47.67;18.47;;;10.70;99.90;;;;;;4407836;28;656960;-70
2023/10/11 04:13:26;;;;;;;34.35;18.08;;;10.70;99.90;;;;;;4399756;28;656732;-70
2023/10/11 04:16:14;;;;;;;33.10;17.30;;;10.80;99.90;;;;;;4411705;28;657316;-70
2023/10/11 04:19:03;;;;;;;35.50;17.63;;;10.80;99.90;;;;;;4427580;28;656278;-70
2023/10/11 04:21:55;;;;;;;30.97;17.67;;;10.80;99.90;;;;;;4405180;28;657203;-70
2023/10/11 04:24:44;;;;;;;32.30;17.20;;;10.80;99.90;;;;;;4390231;28;656433;-70
2023/10/11 04:27:52;;;;;;;34.70;16.90;;;10.80;99.90;;;;;;4431642;28;657072;-70
2023/10/11 04:30:41;;;;;;;31.37;16.67;;;10.80;99.90;;;;;;4405443;28;657227;-70
2023/10/11 04:33:29;;;;;;;28.53;15.43;;;10.90;99.90;;;;;;4407629;28;656727;-70
2023/10/11 04:36:20;;;;;;;26.50;17.27;;;10.80;99.90;;;;;;4426974;28;656177;-70
2023/10/11 04:39:16;;;;;;;34.93;17.50;;;10.80;99.90;;;;;;4425551;28;658369;-70
2023/10/11 04:42:06;;;;;;;33.67;17.03;;;10.90;99.90;;;;;;4386001;28;656969;-70
2023/10/11 04:44:56;;;;;;;31.70;17.88;;;10.90;99.90;;;;;;4405806;28;656175;-70
2023/10/11 04:47:52;;;;;;;28.90;16.33;;;11.00;99.90;;;;;;4408314;28;656247;-70
2023/10/11 04:50:44;;;;;;;41.30;22.50;;;10.90;99.90;;;;;;4382772;28;657618;-70
2023/10/11 04:53:35;;;;;;;35.63;22.47;;;10.90;99.90;;;;;;4406171;28;657133;-71
2023/10/11 04:59:36;;;;;;;34.13;18.33;;;10.90;99.90;;;;;;4385416;28;656707;-70
2023/10/11 05:02:32;;;;;;;28.93;17.33;;;10.90;99.90;;;;;;4410494;28;657380;-70
2023/10/11 05:05:21;;;;;;;33.97;17.63;;;10.90;99.90;;;;;;4384308;28;658069;-70
2023/10/11 05:08:20;;;;;;;26.00;16.73;;;10.80;99.90;;;;;;4411988;28;657680;-70
2023/10/11 05:11:18;;;;;;;28.40;15.03;;;10.80;99.90;;;;;;4394040;28;657511;-70
2023/10/11 05:14:26;;;;;;;21.47;13.43;;;10.90;99.90;;;;;;4410911;28;658111;-70
2023/10/11 05:23:52;;;;;;;24.60;12.70;;;11.00;99.90;;;;;;4305077;28;657240;-70
2023/10/11 05:26:45;;;;;;;26.60;14.33;;;11.00;99.90;;;;;;4301615;28;657546;-71
2023/10/11 05:29:36;;;;;;;27.87;14.07;;;11.00;99.90;;;;;;4365985;28;656889;-70
2023/10/11 05:32:27;;;;;;;24.50;12.83;;;11.00;99.90;;;;;;4409807;28;656579;-70
2023/10/11 05:35:25;;;;;;;27.57;15.97;;;11.00;99.90;;;;;;4401480;28;657920;-70
2023/10/11 05:50:54;;;;;;;19.97;12.60;;;11.20;99.90;;;;;;4324572;28;657032;-70
2023/10/11 05:53:43;;;;;;;20.70;11.97;;;11.30;99.90;;;;;;4403215;28;656857;-70
2023/10/11 05:56:33;;;;;;;28.92;12.30;;;11.40;99.90;;;;;;4401015;28;657676;-70
2023/10/11 05:59:21;;;;;;;18.90;11.73;;;11.40;99.90;;;;;;4404364;28;657599;-70
2023/10/11 06:02:13;;;;;;;19.07;11.47;;;11.50;99.90;;;;;;4408136;28;657865;-71
2023/10/11 06:05:02;;;;;;;23.03;12.20;;;11.60;99.90;;;;;;4400445;28;657404;-69
2023/10/11 06:08:00;;;;;;;22.20;10.47;;;11.70;99.90;;;;;;4407760;28;656569;-71
2023/10/11 06:10:49;;;;;;;17.27;11.02;;;11.70;99.90;;;;;;4384341;28;657621;-70
2023/10/11 06:13:37;;;;;;;16.73;10.43;;;11.90;99.90;;;;;;4426137;28;656239;-71
2023/10/11 06:16:24;;;;;;;26.53;11.13;;;12.00;99.90;;;;;;4412268;28;657666;-70
2023/10/11 06:19:17;;;;;;;18.47;11.03;;;12.00;99.90;;;;;;4429911;28;656707;-70
2023/10/11 06:22:10;;;;;;;23.40;11.30;;;12.20;99.90;;;;;;4384504;28;657333;-70
2023/10/11 06:24:58;;;;;;;20.77;10.80;;;12.20;99.90;;;;;;4379919;28;657593;-70
2023/10/11 06:30:52;;;;;;;27.50;11.20;;;12.30;99.90;;;;;;4400437;28;657658;-70
2023/10/11 06:33:44;;;;;;;228.07;16.20;;;12.40;99.90;;;;;;4406583;28;658114;-71
2023/10/11 06:36:35;;;;;;;18.83;10.63;;;12.50;99.90;;;;;;4398192;28;657433;-71
2023/10/11 06:42:31;;;;;;;17.37;11.27;;;12.60;99.90;;;;;;4398384;28;656978;-70
2023/10/11 06:45:20;;;;;;;22.70;10.80;;;12.80;99.90;;;;;;4381277;28;658155;-70
2023/10/11 06:48:08;;;;;;;18.87;10.47;;;13.00;99.90;;;;;;4418782;28;656627;-70
2023/10/11 06:50:56;;;;;;;24.23;11.90;;;13.20;99.90;;;;;;4427500;28;656729;-70
2023/10/11 06:53:45;;;;;;;30.20;18.00;;;13.40;99.90;;;;;;4405006;28;656761;-70
2023/10/11 06:56:33;;;;;;;33.17;16.27;;;13.60;99.90;;;;;;4402190;28;657663;-70
2023/10/11 06:59:20;;;;;;;26.23;13.63;;;13.80;99.90;;;;;;4427828;28;657928;-70
2023/10/11 07:02:17;;;;;;;29.23;17.67;;;14.10;99.90;;;;;;4407227;28;657297;-70
2023/10/11 07:05:06;;;;;;;29.77;17.90;;;14.20;99.90;;;;;;4377096;28;660005;-71
2023/10/11 07:07:55;;;;;;;30.67;17.67;;;14.40;99.90;;;;;;4403939;28;658098;-70
2023/10/11 07:10:45;;;;;;;26.07;17.10;;;14.60;99.90;;;;;;4400479;28;658110;-70
2023/10/11 07:13:49;;;;;;;25.40;14.73;;;14.70;99.90;;;;;;4399355;28;657845;-70
2023/10/11 07:16:37;;;;;;;22.87;12.77;;;14.90;99.90;;;;;;4403311;28;657832;-70
2023/10/11 07:19:26;;;;;;;22.97;10.73;;;15.00;99.90;;;;;;4406550;28;658093;-70
2023/10/11 07:22:18;;;;;;;24.77;11.00;;;15.20;99.90;;;;;;4407790;28;657985;-70
2023/10/11 07:25:36;;;;;;;19.53;10.67;;;15.30;99.90;;;;;;4405567;28;658272;-70
2023/10/11 07:28:36;;;;;;;17.93;11.23;;;15.40;99.90;;;;;;4369767;28;658084;-70
2023/10/11 07:31:32;;;;;;;22.83;11.50;;;15.40;99.90;;;;;;4368569;28;657166;-70
2023/10/11 07:34:20;;;;;;;23.33;10.23;;;15.60;99.90;;;;;;4404084;28;658690;-70
2023/10/11 07:37:11;;;;;;;24.70;8.47;;;15.80;99.90;;;;;;4411736;28;657554;-70
2023/10/11 07:40:09;;;;;;;20.00;9.63;;;16.00;99.90;;;;;;4403364;28;657425;-70
2023/10/11 07:42:57;;;;;;;19.10;10.00;;;16.10;99.90;;;;;;4400958;28;656556;-69
2023/10/11 07:45:47;;;;;;;20.17;9.80;;;16.30;99.90;;;;;;4410298;28;658258;-69
2023/10/11 07:48:35;;;;;;;21.20;9.63;;;16.30;99.90;;;;;;4402845;28;658030;-69
2023/10/11 07:51:25;;;;;;;21.73;10.00;;;16.50;99.90;;;;;;4413107;28;656361;-70
2023/10/11 07:54:19;;;;;;;14.27;9.27;;;16.50;99.90;;;;;;4418976;28;657774;-69
2023/10/11 07:57:13;;;;;;;14.43;8.07;;;16.80;99.90;;;;;;4397949;28;656697;-69
2023/10/11 08:00:00;;;;;;;18.80;9.97;;;16.90;99.90;;;;;;4380888;28;657736;-69
2023/10/11 08:02:56;;;;;;;20.70;8.37;;;17.10;99.90;;;;;;4421719;28;657076;-69
2023/10/11 08:05:46;;;;;;;24.87;8.17;;;17.00;99.90;;;;;;4386456;28;656568;-68
2023/10/11 08:08:33;;;;;;;19.07;8.20;;;17.20;99.90;;;;;;4403027;28;656477;-68
2023/10/11 08:11:22;;;;;;;22.77;7.60;;;17.50;99.90;;;;;;4434214;28;656959;-69
2023/10/11 08:14:14;;;;;;;15.77;7.87;;;17.90;99.90;;;;;;4386615;28;656948;-69
2023/10/11 08:17:10;;;;;;;16.52;7.05;;;18.00;99.90;;;;;;4298640;28;656814;-69
2023/10/11 08:19:57;;;;;;;16.70;6.53;;;18.00;99.90;;;;;;4312878;28;656378;-69
2023/10/11 08:22:47;;;;;;;13.93;6.50;;;18.10;99.90;;;;;;4310984;28;656754;-69
2023/10/11 08:25:39;;;;;;;22.93;5.87;;;18.00;99.90;;;;;;4301645;28;656902;-68
2023/10/11 08:28:29;;;;;;;13.33;5.63;;;17.90;99.90;;;;;;4293926;28;656747;-69
2023/10/11 08:31:29;;;;;;;13.80;4.80;;;18.20;99.90;;;;;;4300813;28;656469;-68
2023/10/11 08:34:18;;;;;;;20.33;6.50;;;18.50;99.90;;;;;;4295926;28;656487;-68
2023/10/11 08:37:07;;;;;;;14.30;6.30;;;18.60;99.90;;;;;;4287060;28;656812;-69
2023/10/11 08:39:55;;;;;;;6.23;3.47;;;18.90;99.90;;;;;;4406611;28;656838;-68
2023/10/11 08:42:48;;;;;;;12.33;5.40;;;18.90;99.90;;;;;;4407926;28;656168;-68
2023/10/11 08:45:48;;;;;;;8.27;3.90;;;19.10;99.90;;;;;;4401151;28;657002;-67
2023/10/11 08:48:38;;;;;;;11.20;4.73;;;19.10;99.90;;;;;;4404456;28;655659;-67
2023/10/11 08:51:25;;;;;;;9.20;4.37;;;19.10;99.90;;;;;;4401916;28;656890;-67
2023/10/11 08:54:13;;;;;;;12.77;5.37;;;19.30;99.90;;;;;;4419096;28;655729;-67
2023/10/11 08:57:03;;;;;;;14.57;5.40;;;19.40;99.90;;;;;;4426542;28;657796;-67
2023/10/11 08:59:50;;;;;;;8.87;4.40;;;19.40;99.90;;;;;;4392590;28;657424;-67
2023/10/11 09:02:48;;;;;;;11.40;4.93;;;19.40;99.90;;;;;;4405170;28;655635;-67
2023/10/11 09:05:42;;;;;;;8.07;3.87;;;19.60;99.90;;;;;;4396142;28;658065;-67
2023/10/11 09:08:32;;;;;;;14.20;5.10;;;20.20;99.90;;;;;;4408524;28;655713;-67
2023/10/11 09:11:29;;;;;;;9.43;4.47;;;20.10;99.90;;;;;;4401625;28;657773;-66
2023/10/11 09:14:22;;;;;;;15.20;4.70;;;20.00;99.90;;;;;;4404292;28;655752;-67
2023/10/11 09:17:19;;;;;;;11.83;5.10;;;20.50;99.90;;;;;;4382764;28;657164;-67
2023/10/11 09:20:15;;;;;;;13.40;4.93;;;20.60;99.90;;;;;;4405703;28;656535;-67
2023/10/11 09:23:03;;;;;;;12.93;5.00;;;20.50;99.90;;;;;;4390226;28;656645;-67
2023/10/11 09:25:59;;;;;;;12.43;4.13;;;20.40;99.90;;;;;;4424351;28;658180;-66
2023/10/11 09:28:53;;;;;;;9.67;4.13;;;20.90;99.90;;;;;;4400684;28;657088;-67
2023/10/11 09:31:57;;;;;;;10.67;4.20;;;20.60;99.90;;;;;;4379580;28;655809;-66
2023/10/11 09:34:45;;;;;;;13.93;4.53;;;20.50;99.90;;;;;;4398056;28;656615;-66
2023/10/11 09:37:33;;;;;;;12.30;4.07;;;20.70;99.90;;;;;;4417324;28;656347;-67
2023/10/11 09:40:27;;;;;;;18.63;4.17;;;21.00;99.90;;;;;;4401012;28;656954;-66
2023/10/11 09:43:16;;;;;;;12.77;4.30;;;21.00;99.90;;;;;;4406882;28;656485;-66
2023/10/11 09:46:04;;;;;;;10.00;3.93;;;20.60;99.90;;;;;;4405826;28;656809;-66
2023/10/11 09:48:51;;;;;;;8.37;3.67;;;20.90;99.90;;;;;;4422873;28;656864;-66
2023/10/11 09:51:41;;;;;;;13.47;4.17;;;21.00;99.90;;;;;;4405369;28;655927;-66
2023/10/11 09:54:29;;;;;;;15.43;4.23;;;21.20;99.90;;;;;;4404204;28;656647;-66
2023/10/11 09:57:23;;;;;;;14.10;4.27;;;21.50;99.90;;;;;;4423736;28;656475;-66
2023/10/11 10:00:14;;;;;;;8.93;3.13;;;21.20;99.90;;;;;;4382284;28;657161;-66
2023/10/11 10:03:03;;;;;;;15.90;4.50;;;21.00;99.90;;;;;;4395053;28;655512;-70
2023/10/11 10:06:07;;;;;;;12.47;3.70;;;20.80;99.90;;;;;;4401295;28;657498;-66
2023/10/11 10:09:22;;;;;;;5.87;2.57;;;20.70;99.90;;;;;;4384626;28;656815;-66
2023/10/11 10:12:25;;;;;;;10.60;4.30;;;20.70;99.90;;;;;;4381175;28;656873;-66
2023/10/11 10:15:14;;;;;;;11.77;2.93;;;20.30;99.90;;;;;;4388057;28;657170;-66
2023/10/11 10:18:20;;;;;;;16.27;4.80;;;20.50;99.90;;;;;;4417716;28;657607;-66
2023/10/11 10:21:07;;;;;;;14.40;4.07;;;20.50;99.90;;;;;;4397406;28;656945;-65
2023/10/11 10:23:55;;;;;;;13.40;3.90;;;20.70;99.90;;;;;;4422086;28;657635;-66
2023/10/11 10:26:43;;;;;;;10.47;3.37;;;20.40;99.90;;;;;;4414737;28;656613;-66
2023/10/11 10:29:52;;;;;;;9.50;2.63;;;21.00;99.90;;;;;;4422609;28;657006;-66
2023/10/11 10:32:39;;;;;;;11.30;3.57;;;21.50;99.90;;;;;;4382436;28;655989;-66
2023/10/11 10:35:36;;;;;;;9.73;4.40;;;21.60;99.90;;;;;;4418949;28;657450;-66
2023/10/11 10:38:24;;;;;;;15.73;4.20;;;21.60;99.90;;;;;;4377768;28;657038;-66
2023/10/11 10:41:22;;;;;;;13.57;4.13;;;21.50;99.90;;;;;;4428385;28;657498;-66
2023/10/11 10:44:11;;;;;;;11.10;4.20;;;21.20;99.90;;;;;;4375016;28;657553;-66
2023/10/11 10:47:00;;;;;;;11.20;4.10;;;21.30;99.90;;;;;;4402362;28;656806;-66
2023/10/11 10:49:51;;;;;;;8.97;4.10;;;21.50;99.90;;;;;;4429460;28;657412;-66
2023/10/11 10:52:39;;;;;;;12.53;4.53;;;21.30;99.90;;;;;;4384128;28;655789;-66
2023/10/11 10:55:34;;;;;;;10.47;3.33;;;21.40;99.90;;;;;;4425055;28;656472;-66
2023/10/11 10:58:22;;;;;;;12.80;4.60;;;21.70;99.90;;;;;;4402208;28;656361;-66
2023/10/11 11:01:09;;;;;;;10.17;4.00;;;21.70;99.90;;;;;;4406435;28;656272;-66
2023/10/11 11:03:59;;;;;;;10.90;3.30;;;21.90;99.90;;;;;;4420686;28;657354;-66
2023/10/11 11:06:48;;;;;;;8.00;3.40;;;21.80;99.90;;;;;;4402893;28;656235;-66
2023/10/11 11:09:34;;;;;;;10.87;3.70;;;21.60;99.90;;;;;;4402076;28;656135;-66
2023/10/11 11:12:28;;;;;;;16.90;4.50;;;22.00;99.90;;;;;;4422953;28;657234;-65
2023/10/11 11:15:20;;;;;;;19.50;4.27;;;22.40;99.90;;;;;;4404479;28;657434;-65
2023/10/11 11:18:11;;;;;;;9.63;4.00;;;22.20;99.90;;;;;;4382745;28;657288;-65
2023/10/11 11:21:17;;;;;;;23.83;3.67;;;22.10;99.90;;;;;;4405129;28;656093;-66
2023/10/11 11:24:17;;;;;;;11.70;3.80;;;22.10;99.90;;;;;;4399803;28;657117;-65
2023/10/11 11:27:07;;;;;;;14.87;4.13;;;21.70;99.90;;;;;;4377615;28;657365;-65
2023/10/11 11:30:02;;;;;;;8.20;3.13;;;22.00;99.90;;;;;;4400143;28;656552;-65
2023/10/11 11:32:49;;;;;;;17.00;4.40;;;21.90;99.90;;;;;;4377571;28;655926;-65
2023/10/11 11:35:45;;;;;;;8.30;3.37;;;21.60;99.90;;;;;;4423300;28;656356;-65
2023/10/11 11:38:36;;;;;;;10.53;3.80;;;21.40;99.90;;;;;;4380856;28;655486;-65
2023/10/11 11:41:24;;;;;;;10.83;3.60;;;21.10;99.90;;;;;;4400577;28;660221;-65
2023/10/11 11:44:19;;;;;;;7.33;3.37;;;21.00;99.90;;;;;;4422913;28;656895;-65
2023/10/11 11:47:07;;;;;;;11.17;3.37;;;20.90;99.90;;;;;;4402496;28;655576;-65
2023/10/11 11:49:54;;;;;;;15.20;4.63;;;21.00;99.90;;;;;;4398135;28;657770;-65
2023/10/11 11:52:42;;;;;;;13.37;4.70;;;21.00;99.90;;;;;;4424675;28;658062;-65
2023/10/11 11:55:31;;;;;;;11.97;3.80;;;21.40;99.90;;;;;;4398685;28;657371;-65
2023/10/11 11:58:19;;;;;;;9.80;4.10;;;21.40;99.90;;;;;;4392956;28;657355;-65
2023/10/11 12:01:08;;;;;;;14.80;4.30;;;21.50;99.90;;;;;;4416567;28;655937;-66
2023/10/11 12:03:56;;;;;;;9.57;3.80;;;22.00;99.90;;;;;;4396945;28;656764;-66
2023/10/11 12:06:42;;;;;;;14.67;3.47;;;22.70;99.90;;;;;;4402398;28;655417;-65
2023/10/11 12:09:32;;;;;;;10.63;3.80;;;23.00;99.90;;;;;;4415257;28;656746;-65
2023/10/11 12:12:21;;;;;;;11.93;3.13;;;22.60;99.90;;;;;;4401719;28;657307;-65
2023/10/11 12:15:16;;;;;;;14.20;4.57;;;22.90;99.90;;;;;;4405235;28;656865;-65
2023/10/11 12:18:05;;;;;;;11.70;4.37;;;22.80;99.90;;;;;;4380022;28;656884;-65
2023/10/11 12:20:54;;;;;;;9.50;2.80;;;23.00;99.90;;;;;;4402242;28;657796;-65
2023/10/11 12:23:46;;;;;;;14.07;3.67;;;23.20;99.90;;;;;;4420391;28;657199;-65
2023/10/11 12:26:34;;;;;;;8.47;3.17;;;22.70;99.90;;;;;;4374894;28;658388;-65
2023/10/11 12:29:22;;;;;;;16.77;4.30;;;22.70;99.90;;;;;;4421668;28;655732;-65
2023/10/11 12:32:11;;;;;;;14.10;4.00;;;22.70;99.90;;;;;;4408297;28;657012;-65
2023/10/11 12:35:04;;;;;;;14.35;4.22;;;23.40;99.90;;;;;;4405878;28;656414;-65
2023/10/11 12:37:52;;;;;;;12.77;4.07;;;24.10;99.90;;;;;;4400054;28;657210;-65
2023/10/11 12:40:39;;;;;;;9.60;3.55;;;24.40;99.90;;;;;;4403711;28;656817;-65
2023/10/11 12:43:29;;;;;;;19.90;4.35;;;24.10;85.90;;;;;;4419003;28;655189;-65
2023/10/11 12:46:18;;;;;;;12.38;4.05;;;23.50;93.10;;;;;;4406659;28;657588;-64
2023/10/11 12:49:12;;;;;;;11.38;4.50;;;23.50;99.90;;;;;;4401363;28;657182;-65
2023/10/11 12:52:05;;;;;;;13.85;4.13;;;23.20;99.90;;;;;;4367811;28;656608;-65
2023/10/11 12:54:53;;;;;;;14.05;4.13;;;22.90;99.90;;;;;;4377567;28;657720;-65
2023/10/11 12:57:40;;;;;;;16.97;4.23;;;22.50;99.90;;;;;;4417121;28;658498;-64
2023/10/11 13:00:31;;;;;;;11.17;4.47;;;22.20;99.90;;;;;;4401524;28;658041;-65
2023/10/11 13:03:25;;;;;;;12.50;4.10;;;21.60;99.90;;;;;;4396939;28;656750;-64
2023/10/11 13:06:12;;;;;;;10.70;3.27;;;21.60;99.90;;;;;;4396350;28;656169;-64
2023/10/11 13:09:00;;;;;;;10.03;3.97;;;21.80;99.90;;;;;;4394916;28;657076;-64
2023/10/11 13:11:48;;;;;;;13.40;4.13;;;21.60;99.90;;;;;;4417618;28;656556;-64
2023/10/11 13:14:38;;;;;;;15.83;4.07;;;21.60;99.90;;;;;;4419769;28;657211;-64
2023/10/11 13:17:28;;;;;;;16.40;3.90;;;21.60;99.90;;;;;;4396916;28;657698;-64
2023/10/11 13:20:19;;;;;;;15.10;3.47;;;21.40;99.90;;;;;;4399553;28;657764;-65
2023/10/11 13:23:07;;;;;;;12.70;3.77;;;21.00;99.90;;;;;;4402142;28;656558;-64
2023/10/11 13:25:55;;;;;;;18.53;4.30;;;21.00;99.90;;;;;;4397627;28;658195;-64
2023/10/11 13:28:48;;;;;;;17.20;5.00;;;20.90;99.90;;;;;;4404650;28;656826;-65
2023/10/11 13:31:35;;;;;;;13.30;4.77;;;20.90;99.90;;;;;;4394301;28;658280;-64
2023/10/11 13:34:23;;;;;;;12.57;4.13;;;20.80;99.90;;;;;;4415886;28;656880;-64
2023/10/11 13:37:11;;;;;;;10.43;3.80;;;20.70;99.90;;;;;;4420256;28;657336;-64
2023/10/11 13:40:05;;;;;;;14.33;4.57;;;20.60;99.90;;;;;;4402767;28;656249;-64
2023/10/11 13:42:53;;;;;;;14.53;4.33;;;20.60;99.90;;;;;;4378518;28;657581;-64
2023/10/11 13:45:41;;;;;;;10.80;4.00;;;20.60;99.90;;;;;;4432919;28;657719;-64
2023/10/11 13:48:36;;;;;;;13.87;3.87;;;20.50;99.90;;;;;;4406396;28;656748;-64
2023/10/11 13:51:27;;;;;;;11.93;3.58;;;20.40;99.90;;;;;;4392688;28;656409;-64
2023/10/11 13:54:19;;;;;;;13.30;4.17;;;20.40;99.90;;;;;;4402830;28;656763;-64
2023/10/11 13:57:11;;;;;;;12.10;4.03;;;20.40;99.90;;;;;;4400546;28;656547;-64
2023/10/11 14:00:41;;;;;;;12.03;3.60;;;20.40;99.90;;;;;;4407317;28;656572;-64
2023/10/11 14:03:38;;;;;;;15.93;4.50;;;20.50;99.90;;;;;;4402945;28;657299;-64
2023/10/11 14:06:41;;;;;;;15.47;4.30;;;20.60;99.90;;;;;;4397314;28;656955;-65
2023/10/11 14:09:31;;;;;;;19.37;4.13;;;20.70;99.90;;;;;;4379281;28;656711;-64
2023/10/11 14:12:19;;;;;;;15.60;4.53;;;20.90;99.90;;;;;;4406431;28;657796;-64
2023/10/11 14:15:08;;;;;;;10.47;3.80;;;20.90;99.90;;;;;;4428442;28;656916;-64
2023/10/11 14:17:55;;;;;;;13.53;4.60;;;20.80;99.90;;;;;;4402494;28;657484;-64
2023/10/11 14:20:49;;;;;;;11.23;3.87;;;21.00;99.90;;;;;;4410111;28;656534;-65
2023/10/11 14:23:36;;;;;;;22.87;5.17;;;21.30;99.90;;;;;;4399646;28;657275;-65
2023/10/11 14:26:26;;;;;;;16.80;3.90;;;21.50;99.90;;;;;;4402565;28;656932;-65
2023/10/11 14:29:13;;;;;;;14.40;4.60;;;21.60;99.90;;;;;;4403493;28;657326;-65
2023/10/11 14:32:00;;;;;;;18.43;4.73;;;21.40;99.90;;;;;;4422384;28;658081;-64
2023/10/11 14:34:48;;;;;;;16.47;4.00;;;21.30;99.90;;;;;;4403525;28;657105;-65
2023/10/11 14:37:35;;;;;;;6.83;3.80;;;21.30;99.90;;;;;;4419227;28;658694;-64
2023/10/11 14:40:24;;;;;;;15.80;5.13;;;21.30;99.90;;;;;;4411555;28;655787;-65
2023/10/11 14:43:14;;;;;;;18.63;4.13;;;21.20;99.90;;;;;;4423179;28;657829;-64
2023/10/11 14:46:06;;;;;;;15.63;4.60;;;21.20;99.90;;;;;;4408397;28;657351;-64
2023/10/11 14:48:53;;;;;;;15.63;4.50;;;21.20;99.90;;;;;;4378259;28;656724;-65
2023/10/11 14:51:41;;;;;;;13.97;4.90;;;20.90;99.90;;;;;;4424466;28;657985;-64